sensor_id;sensor_type;location;lat;lon;timestamp;P1;durP1;ratioP1;P2;durP2;ratioP2
57605;SDS011;43430;48.204;11.556;2023-04-15T00:08:26;4.80;;;2.00;;
57605;SDS011;43430;48.204;11.556;2023-04-15T00:11:34;8.60;;;2.28;;
57605;SDS011;43430;48.204;11.556;2023-04-15T00:14:55;7.10;;;2.15;;
57605;SDS011;43430;48.204;11.556;2023-04-15T00:21:15;6.82;;;2.50;;
57605;SDS011;43430;48.204;11.556;2023-04-15T00:23:44;5.65;;;1.90;;
57605;SDS011;43430;48.204;11.556;2023-04-15T00:32:53;7.75;;;2.30;;
57605;SDS011;43430;48.204;11.556;2023-04-15T00:35:44;4.63;;;1.98;;
57605;SDS011;43430;48.204;11.556;2023-04-15T00:41:17;9.93;;;1.75;;
57605;SDS011;43430;48.204;11.556;2023-04-15T00:46:52;6.50;;;2.58;;
57605;SDS011;43430;48.204;11.556;2023-04-15T00:49:18;6.40;;;2.83;;
57605;SDS011;43430;48.204;11.556;2023-04-15T00:51:44;9.07;;;2.40;;
57605;SDS011;43430;48.204;11.556;2023-04-15T00:54:15;11.68;;;3.00;;
57605;SDS011;43430;48.204;11.556;2023-04-15T00:56:50;12.25;;;3.17;;
57605;SDS011;43430;48.204;11.556;2023-04-15T00:59:16;10.27;;;3.28;;
57605;SDS011;43430;48.204;11.556;2023-04-15T01:01:44;11.45;;;3.50;;
57605;SDS011;43430;48.204;11.556;2023-04-15T01:04:16;8.77;;;2.67;;
57605;SDS011;43430;48.204;11.556;2023-04-15T01:06:51;8.85;;;2.97;;
57605;SDS011;43430;48.204;11.556;2023-04-15T01:09:17;12.25;;;3.33;;
57605;SDS011;43430;48.204;11.556;2023-04-15T01:11:45;10.90;;;3.35;;
57605;SDS011;43430;48.204;11.556;2023-04-15T01:14:21;8.27;;;3.67;;
57605;SDS011;43430;48.204;11.556;2023-04-15T01:16:47;8.10;;;3.30;;
57605;SDS011;43430;48.204;11.556;2023-04-15T01:19:21;7.90;;;3.33;;
57605;SDS011;43430;48.204;11.556;2023-04-15T01:21:53;9.40;;;3.38;;
57605;SDS011;43430;48.204;11.556;2023-04-15T01:24:19;12.07;;;3.47;;
57605;SDS011;43430;48.204;11.556;2023-04-15T01:26:55;7.03;;;3.08;;
57605;SDS011;43430;48.204;11.556;2023-04-15T01:29:24;8.38;;;3.42;;
57605;SDS011;43430;48.204;11.556;2023-04-15T01:31:57;10.05;;;3.80;;
57605;SDS011;43430;48.204;11.556;2023-04-15T01:34:22;6.68;;;3.00;;
57605;SDS011;43430;48.204;11.556;2023-04-15T01:36:48;7.68;;;3.40;;
57605;SDS011;43430;48.204;11.556;2023-04-15T01:39:25;6.40;;;3.28;;
57605;SDS011;43430;48.204;11.556;2023-04-15T01:41:56;8.70;;;3.65;;
57605;SDS011;43430;48.204;11.556;2023-04-15T01:44:25;9.95;;;3.80;;
57605;SDS011;43430;48.204;11.556;2023-04-15T01:47:38;8.57;;;3.35;;
57605;SDS011;43430;48.204;11.556;2023-04-15T01:53:34;8.60;;;4.15;;
57605;SDS011;43430;48.204;11.556;2023-04-15T01:59:21;8.30;;;3.72;;
57605;SDS011;43430;48.204;11.556;2023-04-15T02:01:47;11.10;;;3.80;;
57605;SDS011;43430;48.204;11.556;2023-04-15T02:04:33;11.45;;;4.28;;
57605;SDS011;43430;48.204;11.556;2023-04-15T02:07:29;10.07;;;3.83;;
57605;SDS011;43430;48.204;11.556;2023-04-15T02:26:37;6.07;;;3.17;;
57605;SDS011;43430;48.204;11.556;2023-04-15T02:29:12;8.60;;;3.10;;
57605;SDS011;43430;48.204;11.556;2023-04-15T02:31:57;8.32;;;3.15;;
57605;SDS011;43430;48.204;11.556;2023-04-15T02:48:02;9.18;;;3.50;;
57605;SDS011;43430;48.204;11.556;2023-04-15T02:51:00;8.30;;;3.42;;
57605;SDS011;43430;48.204;11.556;2023-04-15T02:57:38;12.55;;;3.25;;
57605;SDS011;43430;48.204;11.556;2023-04-15T03:07:36;5.72;;;2.53;;
57605;SDS011;43430;48.204;11.556;2023-04-15T03:10:17;7.72;;;3.13;;
57605;SDS011;43430;48.204;11.556;2023-04-15T03:13:37;6.53;;;3.00;;
57605;SDS011;43430;48.204;11.556;2023-04-15T03:16:11;7.10;;;3.10;;
57605;SDS011;43430;48.204;11.556;2023-04-15T03:18:37;8.10;;;4.13;;
57605;SDS011;43430;48.204;11.556;2023-04-15T03:25:05;9.25;;;3.45;;
57605;SDS011;43430;48.204;11.556;2023-04-15T03:31:11;7.70;;;3.17;;
57605;SDS011;43430;48.204;11.556;2023-04-15T03:33:36;10.50;;;2.83;;
57605;SDS011;43430;48.204;11.556;2023-04-15T03:36:04;9.77;;;2.67;;
57605;SDS011;43430;48.204;11.556;2023-04-15T03:38:39;8.52;;;2.72;;
57605;SDS011;43430;48.204;11.556;2023-04-15T03:41:19;8.07;;;3.03;;
57605;SDS011;43430;48.204;11.556;2023-04-15T03:44:01;8.85;;;3.67;;
57605;SDS011;43430;48.204;11.556;2023-04-15T03:46:28;6.55;;;2.88;;
57605;SDS011;43430;48.204;11.556;2023-04-15T03:55:22;8.10;;;2.83;;
57605;SDS011;43430;48.204;11.556;2023-04-15T03:58:11;5.10;;;2.50;;
57605;SDS011;43430;48.204;11.556;2023-04-15T04:00:47;6.97;;;3.00;;
57605;SDS011;43430;48.204;11.556;2023-04-15T04:03:26;10.57;;;3.60;;
57605;SDS011;43430;48.204;11.556;2023-04-15T04:06:04;6.63;;;2.78;;
57605;SDS011;43430;48.204;11.556;2023-04-15T04:08:34;10.65;;;3.60;;
57605;SDS011;43430;48.204;11.556;2023-04-15T04:11:00;9.00;;;3.25;;
57605;SDS011;43430;48.204;11.556;2023-04-15T04:13:28;5.55;;;3.00;;
57605;SDS011;43430;48.204;11.556;2023-04-15T04:15:59;8.48;;;3.17;;
57605;SDS011;43430;48.204;11.556;2023-04-15T04:18:27;10.13;;;3.22;;
57605;SDS011;43430;48.204;11.556;2023-04-15T04:21:11;6.13;;;2.50;;
57605;SDS011;43430;48.204;11.556;2023-04-15T04:23:56;8.65;;;3.05;;
57605;SDS011;43430;48.204;11.556;2023-04-15T04:26:27;7.70;;;2.78;;
57605;SDS011;43430;48.204;11.556;2023-04-15T04:28:58;7.68;;;2.85;;
57605;SDS011;43430;48.204;11.556;2023-04-15T04:31:27;4.68;;;2.15;;
57605;SDS011;43430;48.204;11.556;2023-04-15T04:33:55;8.23;;;2.67;;
57605;SDS011;43430;48.204;11.556;2023-04-15T04:36:30;6.38;;;2.58;;
57605;SDS011;43430;48.204;11.556;2023-04-15T04:38:56;6.13;;;3.38;;
57605;SDS011;43430;48.204;11.556;2023-04-15T04:44:11;7.60;;;2.95;;
57605;SDS011;43430;48.204;11.556;2023-04-15T04:46:46;7.18;;;2.50;;
57605;SDS011;43430;48.204;11.556;2023-04-15T04:49:12;7.55;;;2.92;;
57605;SDS011;43430;48.204;11.556;2023-04-15T04:51:40;6.57;;;2.03;;
57605;SDS011;43430;48.204;11.556;2023-04-15T04:54:24;6.30;;;2.13;;
57605;SDS011;43430;48.204;11.556;2023-04-15T04:57:01;11.65;;;2.60;;
57605;SDS011;43430;48.204;11.556;2023-04-15T04:59:33;5.70;;;2.28;;
57605;SDS011;43430;48.204;11.556;2023-04-15T05:02:00;8.15;;;2.13;;
57605;SDS011;43430;48.204;11.556;2023-04-15T05:04:30;7.53;;;2.17;;
57605;SDS011;43430;48.204;11.556;2023-04-15T05:06:56;5.13;;;2.40;;
57605;SDS011;43430;48.204;11.556;2023-04-15T05:09:23;6.30;;;1.98;;
57605;SDS011;43430;48.204;11.556;2023-04-15T05:11:57;8.55;;;2.38;;
57605;SDS011;43430;48.204;11.556;2023-04-15T05:14:23;6.47;;;2.30;;
57605;SDS011;43430;48.204;11.556;2023-04-15T05:16:48;7.72;;;2.70;;
57605;SDS011;43430;48.204;11.556;2023-04-15T05:19:16;6.45;;;2.05;;
57605;SDS011;43430;48.204;11.556;2023-04-15T05:21:41;4.60;;;1.95;;
57605;SDS011;43430;48.204;11.556;2023-04-15T05:24:07;8.60;;;1.83;;
57605;SDS011;43430;48.204;11.556;2023-04-15T05:26:32;6.85;;;1.63;;
57605;SDS011;43430;48.204;11.556;2023-04-15T05:29:00;7.88;;;2.00;;
57605;SDS011;43430;48.204;11.556;2023-04-15T05:31:26;5.55;;;1.20;;
57605;SDS011;43430;48.204;11.556;2023-04-15T05:33:51;8.63;;;2.05;;
57605;SDS011;43430;48.204;11.556;2023-04-15T05:36:19;4.78;;;1.75;;
57605;SDS011;43430;48.204;11.556;2023-04-15T05:38:45;6.28;;;2.05;;
57605;SDS011;43430;48.204;11.556;2023-04-15T05:41:10;7.65;;;1.63;;
57605;SDS011;43430;48.204;11.556;2023-04-15T05:43:36;5.85;;;1.40;;
57605;SDS011;43430;48.204;11.556;2023-04-15T05:46:01;4.68;;;1.27;;
57605;SDS011;43430;48.204;11.556;2023-04-15T05:48:32;3.83;;;1.02;;
57605;SDS011;43430;48.204;11.556;2023-04-15T05:50:57;6.65;;;1.67;;
57605;SDS011;43430;48.204;11.556;2023-04-15T05:53:35;4.65;;;0.95;;
57605;SDS011;43430;48.204;11.556;2023-04-15T05:56:07;7.28;;;1.50;;
57605;SDS011;43430;48.204;11.556;2023-04-15T05:58:47;4.50;;;1.08;;
57605;SDS011;43430;48.204;11.556;2023-04-15T06:01:12;5.68;;;1.10;;
57605;SDS011;43430;48.204;11.556;2023-04-15T06:03:38;5.75;;;1.05;;
57605;SDS011;43430;48.204;11.556;2023-04-15T06:06:05;5.00;;;0.90;;
57605;SDS011;43430;48.204;11.556;2023-04-15T06:08:44;6.80;;;0.80;;
57605;SDS011;43430;48.204;11.556;2023-04-15T06:11:22;3.92;;;0.77;;
57605;SDS011;43430;48.204;11.556;2023-04-15T06:13:58;4.45;;;0.63;;
57605;SDS011;43430;48.204;11.556;2023-04-15T06:16:23;4.82;;;0.70;;
57605;SDS011;43430;48.204;11.556;2023-04-15T06:18:49;5.45;;;1.10;;
57605;SDS011;43430;48.204;11.556;2023-04-15T06:21:27;3.63;;;0.88;;
57605;SDS011;43430;48.204;11.556;2023-04-15T06:24:00;3.13;;;0.45;;
57605;SDS011;43430;48.204;11.556;2023-04-15T06:26:33;3.97;;;0.82;;
57605;SDS011;43430;48.204;11.556;2023-04-15T06:29:15;7.35;;;0.82;;
57605;SDS011;43430;48.204;11.556;2023-04-15T06:31:49;2.78;;;0.60;;
57605;SDS011;43430;48.204;11.556;2023-04-15T06:34:23;5.00;;;0.90;;
57605;SDS011;43430;48.204;11.556;2023-04-15T06:36:55;5.65;;;0.88;;
57605;SDS011;43430;48.204;11.556;2023-04-15T06:39:49;3.33;;;0.50;;
57605;SDS011;43430;48.204;11.556;2023-04-15T06:42:35;6.47;;;0.93;;
57605;SDS011;43430;48.204;11.556;2023-04-15T06:45:11;3.83;;;0.45;;
57605;SDS011;43430;48.204;11.556;2023-04-15T06:47:55;6.55;;;0.75;;
57605;SDS011;43430;48.204;11.556;2023-04-15T06:50:36;3.63;;;0.57;;
57605;SDS011;43430;48.204;11.556;2023-04-15T06:53:01;3.63;;;0.68;;
57605;SDS011;43430;48.204;11.556;2023-04-15T06:55:27;5.07;;;0.50;;
57605;SDS011;43430;48.204;11.556;2023-04-15T06:58:03;5.15;;;0.75;;
57605;SDS011;43430;48.204;11.556;2023-04-15T07:00:28;5.15;;;0.60;;
57605;SDS011;43430;48.204;11.556;2023-04-15T07:02:54;3.72;;;0.73;;
57605;SDS011;43430;48.204;11.556;2023-04-15T07:05:26;6.57;;;0.65;;
57605;SDS011;43430;48.204;11.556;2023-04-15T07:13:18;5.47;;;0.80;;
57605;SDS011;43430;48.204;11.556;2023-04-15T07:15:59;3.45;;;0.40;;
57605;SDS011;43430;48.204;11.556;2023-04-15T07:18:33;5.82;;;0.60;;
57605;SDS011;43430;48.204;11.556;2023-04-15T07:21:51;5.53;;;0.75;;
57605;SDS011;43430;48.204;11.556;2023-04-15T07:24:16;3.53;;;0.90;;
57605;SDS011;43430;48.204;11.556;2023-04-15T07:26:52;3.25;;;0.60;;
57605;SDS011;43430;48.204;11.556;2023-04-15T07:30:05;2.53;;;0.57;;
57605;SDS011;43430;48.204;11.556;2023-04-15T07:32:36;2.25;;;0.47;;
57605;SDS011;43430;48.204;11.556;2023-04-15T07:38:11;3.85;;;0.40;;
57605;SDS011;43430;48.204;11.556;2023-04-15T07:40:57;3.60;;;0.55;;
57605;SDS011;43430;48.204;11.556;2023-04-15T07:50:03;2.80;;;0.52;;
57605;SDS011;43430;48.204;11.556;2023-04-15T07:52:50;3.40;;;0.57;;
57605;SDS011;43430;48.204;11.556;2023-04-15T07:58:41;7.60;;;0.95;;
57605;SDS011;43430;48.204;11.556;2023-04-15T08:04:45;3.85;;;0.47;;
57605;SDS011;43430;48.204;11.556;2023-04-15T08:07:49;4.45;;;0.50;;
57605;SDS011;43430;48.204;11.556;2023-04-15T08:10:18;3.53;;;0.75;;
57605;SDS011;43430;48.204;11.556;2023-04-15T08:12:56;3.50;;;0.40;;
57605;SDS011;43430;48.204;11.556;2023-04-15T08:17:54;2.38;;;0.57;;
57605;SDS011;43430;48.204;11.556;2023-04-15T08:21:09;2.97;;;0.45;;
57605;SDS011;43430;48.204;11.556;2023-04-15T08:24:01;4.50;;;0.73;;
57605;SDS011;43430;48.204;11.556;2023-04-15T08:27:07;3.72;;;0.68;;
57605;SDS011;43430;48.204;11.556;2023-04-15T08:29:53;5.10;;;1.25;;
57605;SDS011;43430;48.204;11.556;2023-04-15T08:32:42;3.45;;;0.65;;
57605;SDS011;43430;48.204;11.556;2023-04-15T08:38:49;3.25;;;0.65;;
57605;SDS011;43430;48.204;11.556;2023-04-15T08:44:48;5.93;;;1.10;;
57605;SDS011;43430;48.204;11.556;2023-04-15T08:51:30;3.33;;;0.60;;
57605;SDS011;43430;48.204;11.556;2023-04-15T08:54:28;6.82;;;2.30;;
57605;SDS011;43430;48.204;11.556;2023-04-15T08:57:13;6.10;;;1.23;;
57605;SDS011;43430;48.204;11.556;2023-04-15T09:03:46;3.22;;;0.70;;
57605;SDS011;43430;48.204;11.556;2023-04-15T09:09:34;6.05;;;0.80;;
57605;SDS011;43430;48.204;11.556;2023-04-15T09:12:19;3.25;;;1.05;;
57605;SDS011;43430;48.204;11.556;2023-04-15T09:15:14;5.40;;;0.95;;
57605;SDS011;43430;48.204;11.556;2023-04-15T09:18:01;5.68;;;0.70;;
57605;SDS011;43430;48.204;11.556;2023-04-15T09:23:36;4.35;;;1.02;;
57605;SDS011;43430;48.204;11.556;2023-04-15T09:26:35;2.60;;;0.88;;
57605;SDS011;43430;48.204;11.556;2023-04-15T09:29:25;3.58;;;0.82;;
57605;SDS011;43430;48.204;11.556;2023-04-15T09:32:31;5.03;;;1.38;;
57605;SDS011;43430;48.204;11.556;2023-04-15T09:39:08;3.70;;;0.90;;
57605;SDS011;43430;48.204;11.556;2023-04-15T09:44:59;3.85;;;1.23;;
57605;SDS011;43430;48.204;11.556;2023-04-15T09:47:58;4.57;;;1.05;;
57605;SDS011;43430;48.204;11.556;2023-04-15T09:51:05;3.90;;;1.25;;
57605;SDS011;43430;48.204;11.556;2023-04-15T09:53:51;3.97;;;1.40;;
57605;SDS011;43430;48.204;11.556;2023-04-15T09:56:18;3.05;;;1.00;;
57605;SDS011;43430;48.204;11.556;2023-04-15T09:59:24;4.50;;;1.60;;
57605;SDS011;43430;48.204;11.556;2023-04-15T10:02:30;5.50;;;1.30;;
57605;SDS011;43430;48.204;11.556;2023-04-15T10:05:28;3.38;;;1.25;;
57605;SDS011;43430;48.204;11.556;2023-04-15T10:08:07;4.07;;;1.35;;
57605;SDS011;43430;48.204;11.556;2023-04-15T10:10:57;4.10;;;1.00;;
57605;SDS011;43430;48.204;11.556;2023-04-15T10:13:44;5.85;;;1.63;;
57605;SDS011;43430;48.204;11.556;2023-04-15T10:16:22;6.35;;;2.28;;
57605;SDS011;43430;48.204;11.556;2023-04-15T10:19:12;5.82;;;1.70;;
57605;SDS011;43430;48.204;11.556;2023-04-15T10:24:49;5.15;;;1.38;;
57605;SDS011;43430;48.204;11.556;2023-04-15T10:27:47;4.10;;;1.50;;
57605;SDS011;43430;48.204;11.556;2023-04-15T10:30:19;5.15;;;1.90;;
57605;SDS011;43430;48.204;11.556;2023-04-15T10:33:34;3.83;;;1.38;;
57605;SDS011;43430;48.204;11.556;2023-04-15T10:44:51;5.63;;;2.08;;
57605;SDS011;43430;48.204;11.556;2023-04-15T10:48:01;6.10;;;1.70;;
57605;SDS011;43430;48.204;11.556;2023-04-15T10:50:33;5.45;;;2.13;;
57605;SDS011;43430;48.204;11.556;2023-04-15T10:53:04;6.72;;;2.60;;
57605;SDS011;43430;48.204;11.556;2023-04-15T10:55:51;5.15;;;2.20;;
57605;SDS011;43430;48.204;11.556;2023-04-15T10:58:39;5.35;;;2.17;;
57605;SDS011;43430;48.204;11.556;2023-04-15T11:01:13;4.68;;;2.22;;
57605;SDS011;43430;48.204;11.556;2023-04-15T11:15:49;6.20;;;2.55;;
57605;SDS011;43430;48.204;11.556;2023-04-15T11:21:26;6.00;;;3.40;;
57605;SDS011;43430;48.204;11.556;2023-04-15T11:23:55;5.47;;;2.50;;
57605;SDS011;43430;48.204;11.556;2023-04-15T11:26:37;5.43;;;2.47;;
57605;SDS011;43430;48.204;11.556;2023-04-15T11:29:19;6.57;;;2.40;;
57605;SDS011;43430;48.204;11.556;2023-04-15T11:32:07;6.85;;;2.42;;
57605;SDS011;43430;48.204;11.556;2023-04-15T11:34:44;5.75;;;2.67;;
57605;SDS011;43430;48.204;11.556;2023-04-15T11:37:35;5.07;;;2.50;;
57605;SDS011;43430;48.204;11.556;2023-04-15T11:43:21;6.35;;;3.28;;
57605;SDS011;43430;48.204;11.556;2023-04-15T11:46:06;4.65;;;2.60;;
57605;SDS011;43430;48.204;11.556;2023-04-15T11:48:48;4.60;;;2.20;;
57605;SDS011;43430;48.204;11.556;2023-04-15T11:51:37;7.32;;;2.75;;
57605;SDS011;43430;48.204;11.556;2023-04-15T11:54:26;6.97;;;3.15;;
57605;SDS011;43430;48.204;11.556;2023-04-15T11:56:57;7.88;;;3.00;;
57605;SDS011;43430;48.204;11.556;2023-04-15T12:02:44;6.75;;;2.75;;
57605;SDS011;43430;48.204;11.556;2023-04-15T12:09:14;4.97;;;1.88;;
57605;SDS011;43430;48.204;11.556;2023-04-15T12:11:55;4.75;;;2.40;;
57605;SDS011;43430;48.204;11.556;2023-04-15T12:14:31;4.30;;;1.75;;
57605;SDS011;43430;48.204;11.556;2023-04-15T12:17:09;5.95;;;2.00;;
57605;SDS011;43430;48.204;11.556;2023-04-15T12:19:55;5.25;;;1.80;;
57605;SDS011;43430;48.204;11.556;2023-04-15T12:22:36;5.90;;;1.75;;
57605;SDS011;43430;48.204;11.556;2023-04-15T12:25:02;5.18;;;1.42;;
57605;SDS011;43430;48.204;11.556;2023-04-15T12:27:33;4.15;;;1.40;;
57605;SDS011;43430;48.204;11.556;2023-04-15T12:30:02;5.30;;;1.58;;
57605;SDS011;43430;48.204;11.556;2023-04-15T12:32:33;4.50;;;0.98;;
57605;SDS011;43430;48.204;11.556;2023-04-15T12:38:10;2.03;;;0.70;;
57605;SDS011;43430;48.204;11.556;2023-04-15T12:43:33;3.13;;;0.82;;
57605;SDS011;43430;48.204;11.556;2023-04-15T12:49:22;3.72;;;0.55;;
57605;SDS011;43430;48.204;11.556;2023-04-15T12:55:25;4.90;;;1.30;;
57605;SDS011;43430;48.204;11.556;2023-04-15T12:58:19;5.82;;;1.60;;
57605;SDS011;43430;48.204;11.556;2023-04-15T13:00:51;3.67;;;0.88;;
57605;SDS011;43430;48.204;11.556;2023-04-15T13:03:17;5.28;;;1.63;;
57605;SDS011;43430;48.204;11.556;2023-04-15T13:06:20;4.40;;;1.38;;
57605;SDS011;43430;48.204;11.556;2023-04-15T13:08:58;7.40;;;1.65;;
57605;SDS011;43430;48.204;11.556;2023-04-15T13:11:33;6.55;;;1.77;;
57605;SDS011;43430;48.204;11.556;2023-04-15T13:14:06;7.22;;;1.98;;
57605;SDS011;43430;48.204;11.556;2023-04-15T13:17:04;4.70;;;1.90;;
57605;SDS011;43430;48.204;11.556;2023-04-15T13:19:59;4.55;;;1.92;;
57605;SDS011;43430;48.204;11.556;2023-04-15T13:22:29;6.50;;;2.63;;
57605;SDS011;43430;48.204;11.556;2023-04-15T13:25:04;6.40;;;2.20;;
57605;SDS011;43430;48.204;11.556;2023-04-15T13:27:37;5.15;;;2.30;;
57605;SDS011;43430;48.204;11.556;2023-04-15T13:30:28;5.30;;;1.88;;
57605;SDS011;43430;48.204;11.556;2023-04-15T13:33:09;7.13;;;2.22;;
57605;SDS011;43430;48.204;11.556;2023-04-15T13:35:40;7.28;;;2.58;;
57605;SDS011;43430;48.204;11.556;2023-04-15T13:38:29;5.85;;;2.40;;
57605;SDS011;43430;48.204;11.556;2023-04-15T13:40:57;6.10;;;2.38;;
57605;SDS011;43430;48.204;11.556;2023-04-15T13:43:52;6.00;;;2.47;;
57605;SDS011;43430;48.204;11.556;2023-04-15T13:46:26;4.60;;;2.40;;
57605;SDS011;43430;48.204;11.556;2023-04-15T13:49:03;4.05;;;1.80;;
57605;SDS011;43430;48.204;11.556;2023-04-15T13:54:49;4.85;;;2.50;;
57605;SDS011;43430;48.204;11.556;2023-04-15T13:57:27;7.60;;;2.65;;
57605;SDS011;43430;48.204;11.556;2023-04-15T14:00:01;4.72;;;2.70;;
57605;SDS011;43430;48.204;11.556;2023-04-15T14:02:53;6.35;;;2.53;;
57605;SDS011;43430;48.204;11.556;2023-04-15T14:05:30;6.28;;;1.75;;
57605;SDS011;43430;48.204;11.556;2023-04-15T14:08:26;4.90;;;1.80;;
57605;SDS011;43430;48.204;11.556;2023-04-15T14:11:04;4.53;;;1.52;;
57605;SDS011;43430;48.204;11.556;2023-04-15T14:13:52;4.22;;;1.55;;
57605;SDS011;43430;48.204;11.556;2023-04-15T14:16:19;4.75;;;1.50;;
57605;SDS011;43430;48.204;11.556;2023-04-15T14:19:09;4.28;;;1.42;;
57605;SDS011;43430;48.204;11.556;2023-04-15T14:21:43;6.53;;;1.65;;
57605;SDS011;43430;48.204;11.556;2023-04-15T14:24:24;4.30;;;1.38;;
57605;SDS011;43430;48.204;11.556;2023-04-15T14:26:53;3.88;;;1.30;;
57605;SDS011;43430;48.204;11.556;2023-04-15T14:29:27;3.58;;;0.90;;
57605;SDS011;43430;48.204;11.556;2023-04-15T14:32:16;5.32;;;1.58;;
57605;SDS011;43430;48.204;11.556;2023-04-15T14:34:55;6.25;;;1.77;;
57605;SDS011;43430;48.204;11.556;2023-04-15T14:37:37;3.42;;;1.52;;
57605;SDS011;43430;48.204;11.556;2023-04-15T14:40:05;4.03;;;1.60;;
57605;SDS011;43430;48.204;11.556;2023-04-15T14:42:39;3.35;;;1.23;;
57605;SDS011;43430;48.204;11.556;2023-04-15T14:45:29;7.50;;;2.28;;
57605;SDS011;43430;48.204;11.556;2023-04-15T14:50:37;4.20;;;1.80;;
57605;SDS011;43430;48.204;11.556;2023-04-15T14:53:10;8.25;;;2.30;;
57605;SDS011;43430;48.204;11.556;2023-04-15T14:55:36;6.20;;;2.15;;
57605;SDS011;43430;48.204;11.556;2023-04-15T14:58:14;4.93;;;2.03;;
57605;SDS011;43430;48.204;11.556;2023-04-15T15:00:48;5.95;;;1.75;;
57605;SDS011;43430;48.204;11.556;2023-04-15T15:03:34;4.95;;;1.98;;
57605;SDS011;43430;48.204;11.556;2023-04-15T15:06:13;9.32;;;3.13;;
57605;SDS011;43430;48.204;11.556;2023-04-15T15:09:02;7.15;;;2.35;;
57605;SDS011;43430;48.204;11.556;2023-04-15T15:11:27;4.18;;;1.63;;
57605;SDS011;43430;48.204;11.556;2023-04-15T15:13:53;6.82;;;1.83;;
57605;SDS011;43430;48.204;11.556;2023-04-15T15:16:42;4.43;;;1.67;;
57605;SDS011;43430;48.204;11.556;2023-04-15T15:19:11;3.67;;;1.70;;
57605;SDS011;43430;48.204;11.556;2023-04-15T15:22:04;5.70;;;2.30;;
57605;SDS011;43430;48.204;11.556;2023-04-15T15:24:35;4.18;;;1.98;;
57605;SDS011;43430;48.204;11.556;2023-04-15T15:27:03;4.72;;;2.15;;
57605;SDS011;43430;48.204;11.556;2023-04-15T15:29:33;9.15;;;4.55;;
57605;SDS011;43430;48.204;11.556;2023-04-15T15:32:02;7.45;;;3.33;;
57605;SDS011;43430;48.204;11.556;2023-04-15T15:34:39;9.02;;;2.70;;
57605;SDS011;43430;48.204;11.556;2023-04-15T15:37:25;7.25;;;2.50;;
57605;SDS011;43430;48.204;11.556;2023-04-15T15:40:06;7.68;;;2.80;;
57605;SDS011;43430;48.204;11.556;2023-04-15T15:42:48;5.63;;;2.03;;
57605;SDS011;43430;48.204;11.556;2023-04-15T15:45:49;7.75;;;3.45;;
57605;SDS011;43430;48.204;11.556;2023-04-15T15:51:24;7.90;;;3.03;;
57605;SDS011;43430;48.204;11.556;2023-04-15T15:54:28;10.48;;;3.75;;
57605;SDS011;43430;48.204;11.556;2023-04-15T15:57:51;6.93;;;3.10;;
57605;SDS011;43430;48.204;11.556;2023-04-15T16:03:41;4.93;;;2.33;;
57605;SDS011;43430;48.204;11.556;2023-04-15T16:06:40;7.15;;;3.60;;
57605;SDS011;43430;48.204;11.556;2023-04-15T16:09:26;6.88;;;3.55;;
57605;SDS011;43430;48.204;11.556;2023-04-15T16:12:05;6.65;;;2.83;;
57605;SDS011;43430;48.204;11.556;2023-04-15T16:14:59;9.07;;;3.67;;
57605;SDS011;43430;48.204;11.556;2023-04-15T16:17:47;6.30;;;3.20;;
57605;SDS011;43430;48.204;11.556;2023-04-15T16:20:19;7.53;;;2.40;;
57605;SDS011;43430;48.204;11.556;2023-04-15T16:22:56;5.68;;;2.35;;
57605;SDS011;43430;48.204;11.556;2023-04-15T16:28:15;6.63;;;2.60;;
57605;SDS011;43430;48.204;11.556;2023-04-15T16:30:49;5.65;;;2.53;;
57605;SDS011;43430;48.204;11.556;2023-04-15T16:33:27;7.90;;;3.30;;
57605;SDS011;43430;48.204;11.556;2023-04-15T16:36:04;5.55;;;2.72;;
57605;SDS011;43430;48.204;11.556;2023-04-15T16:38:42;6.50;;;2.15;;
57605;SDS011;43430;48.204;11.556;2023-04-15T16:41:17;5.78;;;2.78;;
57605;SDS011;43430;48.204;11.556;2023-04-15T16:43:50;6.57;;;2.22;;
57605;SDS011;43430;48.204;11.556;2023-04-15T16:46:28;6.57;;;2.38;;
57605;SDS011;43430;48.204;11.556;2023-04-15T16:52:08;4.70;;;1.92;;
57605;SDS011;43430;48.204;11.556;2023-04-15T16:54:46;4.00;;;1.85;;
57605;SDS011;43430;48.204;11.556;2023-04-15T16:57:39;5.68;;;2.47;;
57605;SDS011;43430;48.204;11.556;2023-04-15T17:00:35;5.18;;;1.95;;
57605;SDS011;43430;48.204;11.556;2023-04-15T17:03:21;3.42;;;1.13;;
57605;SDS011;43430;48.204;11.556;2023-04-15T17:05:50;4.43;;;1.08;;
57605;SDS011;43430;48.204;11.556;2023-04-15T17:08:24;4.85;;;1.40;;
57605;SDS011;43430;48.204;11.556;2023-04-15T17:14:05;3.45;;;1.27;;
57605;SDS011;43430;48.204;11.556;2023-04-15T17:16:43;3.85;;;1.60;;
57605;SDS011;43430;48.204;11.556;2023-04-15T17:23:22;3.50;;;1.13;;
57605;SDS011;43430;48.204;11.556;2023-04-15T17:25:59;5.38;;;1.30;;
57605;SDS011;43430;48.204;11.556;2023-04-15T17:28:35;5.00;;;1.45;;
57605;SDS011;43430;48.204;11.556;2023-04-15T17:31:06;3.55;;;1.40;;
57605;SDS011;43430;48.204;11.556;2023-04-15T17:34:03;11.93;;;2.20;;
57605;SDS011;43430;48.204;11.556;2023-04-15T17:36:50;5.50;;;1.50;;
57605;SDS011;43430;48.204;11.556;2023-04-15T17:40:07;6.78;;;1.70;;
57605;SDS011;43430;48.204;11.556;2023-04-15T17:42:46;4.18;;;1.88;;
57605;SDS011;43430;48.204;11.556;2023-04-15T17:48:20;6.65;;;2.20;;
57605;SDS011;43430;48.204;11.556;2023-04-15T17:50:52;6.10;;;2.00;;
57605;SDS011;43430;48.204;11.556;2023-04-15T17:53:18;8.88;;;2.20;;
57605;SDS011;43430;48.204;11.556;2023-04-15T17:55:53;8.07;;;2.35;;
57605;SDS011;43430;48.204;11.556;2023-04-15T17:58:30;8.30;;;2.17;;
57605;SDS011;43430;48.204;11.556;2023-04-15T18:00:56;6.60;;;2.80;;
57605;SDS011;43430;48.204;11.556;2023-04-15T18:03:25;6.63;;;2.47;;
57605;SDS011;43430;48.204;11.556;2023-04-15T18:05:51;5.22;;;1.98;;
57605;SDS011;43430;48.204;11.556;2023-04-15T18:08:16;4.57;;;2.00;;
57605;SDS011;43430;48.204;11.556;2023-04-15T18:10:42;7.22;;;2.92;;
57605;SDS011;43430;48.204;11.556;2023-04-15T18:13:07;6.75;;;2.80;;
57605;SDS011;43430;48.204;11.556;2023-04-15T18:15:38;6.47;;;2.85;;
57605;SDS011;43430;48.204;11.556;2023-04-15T18:18:04;8.95;;;2.55;;
57605;SDS011;43430;48.204;11.556;2023-04-15T18:20:29;7.28;;;3.08;;
57605;SDS011;43430;48.204;11.556;2023-04-15T18:22:57;5.13;;;2.50;;
57605;SDS011;43430;48.204;11.556;2023-04-15T18:25:26;10.10;;;3.67;;
57605;SDS011;43430;48.204;11.556;2023-04-15T18:28:17;8.85;;;3.25;;
57605;SDS011;43430;48.204;11.556;2023-04-15T18:31:09;7.20;;;3.13;;
57605;SDS011;43430;48.204;11.556;2023-04-15T18:33:49;6.38;;;3.50;;
57605;SDS011;43430;48.204;11.556;2023-04-15T18:36:15;8.20;;;3.75;;
57605;SDS011;43430;48.204;11.556;2023-04-15T18:38:44;8.15;;;3.83;;
57605;SDS011;43430;48.204;11.556;2023-04-15T18:41:18;9.30;;;3.35;;
57605;SDS011;43430;48.204;11.556;2023-04-15T18:43:43;9.43;;;4.28;;
57605;SDS011;43430;48.204;11.556;2023-04-15T18:46:17;6.63;;;3.53;;
57605;SDS011;43430;48.204;11.556;2023-04-15T18:48:43;7.72;;;4.28;;
57605;SDS011;43430;48.204;11.556;2023-04-15T18:51:14;7.38;;;3.60;;
57605;SDS011;43430;48.204;11.556;2023-04-15T18:53:42;8.98;;;3.15;;
57605;SDS011;43430;48.204;11.556;2023-04-15T18:56:12;7.22;;;3.17;;
57605;SDS011;43430;48.204;11.556;2023-04-15T18:59:01;8.68;;;4.00;;
57605;SDS011;43430;48.204;11.556;2023-04-15T19:01:30;7.38;;;3.83;;
57605;SDS011;43430;48.204;11.556;2023-04-15T19:04:04;8.90;;;3.67;;
57605;SDS011;43430;48.204;11.556;2023-04-15T19:07:08;8.98;;;3.85;;
57605;SDS011;43430;48.204;11.556;2023-04-15T19:09:43;10.45;;;4.22;;
57605;SDS011;43430;48.204;11.556;2023-04-15T19:12:14;10.45;;;3.85;;
57605;SDS011;43430;48.204;11.556;2023-04-15T19:14:42;7.80;;;3.85;;